createdAt,value
2019-05-12T00:01:01.670Z,9.00
2019-05-12T00:03:31.500Z,8.90
2019-05-12T00:06:01.427Z,8.90
2019-05-12T00:08:31.312Z,8.80
2019-05-12T00:11:00.871Z,8.80
2019-05-12T00:13:30.729Z,8.80
2019-05-12T00:16:00.656Z,8.80
2019-05-12T00:18:30.577Z,8.70
2019-05-12T00:21:00.565Z,8.60
2019-05-12T00:23:31.255Z,8.50
2019-05-12T00:26:01.229Z,8.60
2019-05-12T00:28:31.041Z,8.70
2019-05-12T00:31:00.577Z,8.70
2019-05-12T00:33:30.468Z,8.60
2019-05-12T00:36:00.385Z,8.60
2019-05-12T00:38:30.296Z,8.60
2019-05-12T00:40:59.826Z,8.50
2019-05-12T00:43:29.721Z,8.40
2019-05-12T00:45:59.628Z,8.40
2019-05-12T00:48:29.137Z,8.40
2019-05-12T00:50:58.672Z,8.40
2019-05-12T00:53:38.986Z,8.40
2019-05-12T00:56:00.406Z,8.50
2019-05-12T00:58:30.086Z,8.60
2019-05-12T01:00:59.960Z,8.60
2019-05-12T01:03:29.852Z,8.60
2019-05-12T01:05:59.390Z,8.60
2019-05-12T01:08:29.269Z,8.50
2019-05-12T01:10:58.801Z,8.50
2019-05-12T01:13:28.376Z,8.50
2019-05-12T01:15:58.694Z,8.50
2019-05-12T01:18:28.610Z,8.40
2019-05-12T01:20:58.530Z,8.40
2019-05-12T01:23:28.597Z,8.40
2019-05-12T01:25:58.738Z,8.40
2019-05-12T01:28:29.508Z,8.40
2019-05-12T01:31:01.085Z,8.40
2019-05-12T01:33:30.974Z,8.30
2019-05-12T01:36:00.933Z,8.30
2019-05-12T01:38:30.802Z,8.40
2019-05-12T01:41:01.126Z,8.40
2019-05-12T01:43:31.037Z,8.30
2019-05-12T01:46:00.952Z,8.30
2019-05-12T01:48:30.873Z,8.20
2019-05-12T01:51:00.901Z,8.20
2019-05-12T01:53:30.685Z,8.20
2019-05-12T01:56:01.002Z,8.20
2019-05-12T01:58:30.960Z,8.10
2019-05-12T02:01:02.912Z,8.10
2019-05-12T02:03:32.628Z,8.00
2019-05-12T02:06:03.236Z,8.00
2019-05-12T02:08:35.105Z,8.00
2019-05-12T02:11:23.192Z,8.00
2019-05-12T02:13:52.977Z,8.00
2019-05-12T02:16:22.861Z,8.00
2019-05-12T02:18:52.775Z,8.00
2019-05-12T02:21:22.673Z,8.00
2019-05-12T02:23:52.217Z,8.00
2019-05-12T02:26:22.103Z,8.00
2019-05-12T02:28:51.654Z,7.90
2019-05-12T02:31:21.658Z,7.90
2019-05-12T02:33:54.904Z,7.80
2019-05-12T02:36:25.908Z,7.90
2019-05-12T02:38:55.979Z,7.80
2019-05-12T02:41:26.245Z,7.80
2019-05-12T02:43:57.246Z,7.70
2019-05-12T02:46:26.782Z,7.70
2019-05-12T02:48:56.673Z,7.70
2019-05-12T02:51:27.588Z,7.70
2019-05-12T02:53:57.518Z,7.70
2019-05-12T02:56:29.842Z,7.60
2019-05-12T02:59:04.880Z,7.60
2019-05-12T03:01:35.127Z,7.50
2019-05-12T03:04:05.934Z,7.60
2019-05-12T03:06:37.841Z,7.60
2019-05-12T03:09:08.295Z,7.60
2019-05-12T03:11:38.852Z,7.60
2019-05-12T03:14:08.629Z,7.60
2019-05-12T03:16:38.492Z,7.60
2019-05-12T03:19:10.506Z,7.60
2019-05-12T03:21:40.422Z,7.50
2019-05-12T03:24:10.343Z,7.50
2019-05-12T03:26:40.238Z,7.50
2019-05-12T03:29:10.171Z,7.50
2019-05-12T03:31:41.370Z,7.40
2019-05-12T03:34:13.521Z,7.40
2019-05-12T03:36:45.345Z,7.40
2019-05-12T03:39:14.997Z,7.40
2019-05-12T03:41:45.062Z,7.40
2019-05-12T03:44:15.340Z,7.30
2019-05-12T03:46:45.747Z,7.30
2019-05-12T03:49:15.775Z,7.30
2019-05-12T03:51:45.861Z,7.30
2019-05-12T03:54:15.931Z,7.20
2019-05-12T03:56:45.741Z,7.20
2019-05-12T03:59:15.664Z,7.20
2019-05-12T04:01:45.576Z,7.20
2019-05-12T04:04:15.635Z,7.20
2019-05-12T04:06:45.665Z,7.10
2019-05-12T04:09:15.805Z,7.10
2019-05-12T04:11:45.718Z,7.10
2019-05-12T04:14:16.826Z,7.10
2019-05-12T04:16:46.355Z,7.10
2019-05-12T04:19:16.211Z,7.10
2019-05-12T04:21:45.760Z,7.10
2019-05-12T04:24:15.638Z,7.10
2019-05-12T04:26:45.585Z,7.10
2019-05-12T04:29:15.775Z,7.10
2019-05-12T04:31:45.785Z,7.10
2019-05-12T04:34:18.913Z,7.10
2019-05-12T04:36:47.250Z,7.10
2019-05-12T04:39:16.795Z,7.20
2019-05-12T04:41:46.669Z,7.30
2019-05-12T04:44:16.205Z,7.50
2019-05-12T04:46:46.092Z,7.70
2019-05-12T04:49:16.026Z,8.00
2019-05-12T04:51:46.752Z,8.30
2019-05-12T04:54:16.274Z,8.50
2019-05-12T04:56:46.164Z,8.80
2019-05-12T04:59:16.165Z,9.10
2019-05-12T05:01:45.989Z,9.40
2019-05-12T05:04:15.873Z,9.70
2019-05-12T05:06:45.838Z,10.00
2019-05-12T05:09:15.360Z,10.40
2019-05-12T05:11:45.475Z,10.80
2019-05-12T05:14:15.308Z,11.20
2019-05-12T05:16:46.033Z,11.60
2019-05-12T05:19:15.000Z,11.90
2019-05-12T05:21:44.752Z,12.30
2019-05-12T05:24:14.518Z,12.30
2019-05-12T05:26:44.422Z,11.40
2019-05-12T05:29:14.384Z,10.60
2019-05-12T05:31:44.444Z,10.10
2019-05-12T05:34:14.916Z,9.70
2019-05-12T05:36:44.972Z,9.50
2019-05-12T05:39:14.516Z,9.30
2019-05-12T05:41:46.543Z,9.10
2019-05-12T05:44:15.866Z,9.00
2019-05-12T05:46:50.061Z,8.80
2019-05-12T05:49:17.322Z,8.60
2019-05-12T05:51:54.174Z,8.60
2019-05-12T05:54:22.696Z,8.60
2019-05-12T05:56:58.158Z,8.60
2019-05-12T05:59:31.014Z,8.60
2019-05-12T06:01:54.855Z,8.70
2019-05-12T06:04:25.884Z,8.70
2019-05-12T06:06:56.143Z,8.80
2019-05-12T06:09:26.078Z,8.90
2019-05-12T06:11:58.972Z,8.90
2019-05-12T06:14:27.533Z,8.90
2019-05-12T06:16:57.445Z,9.00
2019-05-12T06:19:28.189Z,9.00
2019-05-12T06:21:58.081Z,9.00
2019-05-12T06:24:27.614Z,9.10
2019-05-12T06:27:00.671Z,9.10
2019-05-12T06:29:29.061Z,9.20
2019-05-12T06:31:59.955Z,9.20
2019-05-12T06:34:30.550Z,9.30
2019-05-12T06:37:03.124Z,9.30
2019-05-12T06:39:34.128Z,9.40
2019-05-12T06:42:12.761Z,9.40
2019-05-12T06:44:34.712Z,9.50
2019-05-12T06:47:07.967Z,9.60
2019-05-12T06:49:40.292Z,9.70
2019-05-12T06:52:14.365Z,9.80
2019-05-12T06:54:51.397Z,10.00
2019-05-12T06:57:22.255Z,10.00
2019-05-12T06:59:51.144Z,10.20
2019-05-12T07:02:19.277Z,10.30
2019-05-12T07:04:54.349Z,10.40
2019-05-12T07:07:20.323Z,10.60
2019-05-12T07:09:54.081Z,10.90
2019-05-12T07:12:24.869Z,11.30
2019-05-12T07:14:55.636Z,11.60
2019-05-12T07:17:27.029Z,11.70
2019-05-12T07:19:58.318Z,11.90
2019-05-12T07:22:31.818Z,12.00
2019-05-12T07:25:00.081Z,12.20
2019-05-12T07:27:36.595Z,12.40
2019-05-12T07:30:01.553Z,12.60
2019-05-12T07:32:34.243Z,12.90
2019-05-12T07:35:05.257Z,12.90
2019-05-12T07:37:35.726Z,13.20
2019-05-12T07:40:06.343Z,13.40
2019-05-12T07:42:39.406Z,13.60
2019-05-12T07:45:11.400Z,13.60
2019-05-12T07:47:40.325Z,13.80
2019-05-12T07:50:18.329Z,14.00
2019-05-12T07:52:44.037Z,14.10
2019-05-12T07:55:14.846Z,14.30
2019-05-12T07:57:54.725Z,14.10
2019-05-12T08:00:22.811Z,14.10
2019-05-12T08:02:49.673Z,14.10
2019-05-12T08:05:21.301Z,13.90
2019-05-12T08:07:53.440Z,13.90
2019-05-12T08:10:23.428Z,13.90
2019-05-12T08:12:58.950Z,13.80
2019-05-12T08:15:24.981Z,14.10
2019-05-12T08:17:59.277Z,14.10
2019-05-12T08:20:26.535Z,14.30
2019-05-12T08:22:59.596Z,14.60
2019-05-12T08:25:28.820Z,15.00
2019-05-12T08:28:11.101Z,15.20
2019-05-12T08:30:46.390Z,15.20
2019-05-12T08:33:28.134Z,15.50
2019-05-12T08:36:05.585Z,15.60
2019-05-12T08:38:29.435Z,15.50
2019-05-12T08:40:59.397Z,15.30
2019-05-12T08:43:29.270Z,15.10
2019-05-12T08:46:00.159Z,14.90
2019-05-12T08:48:30.723Z,14.90
2019-05-12T08:51:07.100Z,14.70
2019-05-12T08:53:33.626Z,14.70
2019-05-12T08:56:05.015Z,14.70
2019-05-12T08:58:47.230Z,14.80
2019-05-12T09:01:06.440Z,14.70
2019-05-12T09:03:35.976Z,14.80
2019-05-12T09:06:09.265Z,15.20
2019-05-12T09:08:43.944Z,15.60
2019-05-12T09:11:09.386Z,16.10
2019-05-12T09:13:38.940Z,16.40
2019-05-12T09:16:09.829Z,16.50
2019-05-12T09:18:39.552Z,16.30
2019-05-12T09:21:09.153Z,16.10
2019-05-12T09:23:41.092Z,15.80
2019-05-12T09:26:10.506Z,15.80
2019-05-12T09:28:49.246Z,16.00
2019-05-12T09:31:14.105Z,16.40
2019-05-12T09:33:44.602Z,16.80
2019-05-12T09:36:19.899Z,17.00
2019-05-12T09:39:01.595Z,16.90
2019-05-12T09:41:25.669Z,16.70
2019-05-12T09:43:55.300Z,16.40
2019-05-12T09:46:28.406Z,16.00
2019-05-12T09:48:56.731Z,15.90
2019-05-12T09:51:32.998Z,15.90
2019-05-12T09:53:58.937Z,16.00
2019-05-12T09:56:28.842Z,16.00
2019-05-12T09:59:02.095Z,15.70
2019-05-12T10:01:35.229Z,15.70
2019-05-12T10:04:03.492Z,15.70
2019-05-12T10:06:34.008Z,15.80
2019-05-12T10:09:08.788Z,15.80
2019-05-12T10:11:37.323Z,15.70
2019-05-12T10:14:10.861Z,15.60
2019-05-12T10:16:39.467Z,15.60
2019-05-12T10:19:10.500Z,15.70
2019-05-12T10:21:40.315Z,15.70
2019-05-12T10:24:10.193Z,15.70
2019-05-12T10:26:41.070Z,15.70
2019-05-12T10:29:17.566Z,15.60
2019-05-12T10:31:44.581Z,15.40
2019-05-12T10:34:20.212Z,15.20
2019-05-12T10:36:53.496Z,15.20
2019-05-12T10:39:24.488Z,15.10
2019-05-12T10:41:54.809Z,15.00
2019-05-12T10:44:24.005Z,14.90
2019-05-12T10:46:55.392Z,14.80
2019-05-12T10:49:24.984Z,14.80
2019-05-12T10:51:54.821Z,14.90
2019-05-12T10:54:24.893Z,15.10
2019-05-12T10:56:54.856Z,15.40
2019-05-12T10:59:32.171Z,15.60
2019-05-12T11:01:56.175Z,15.60
2019-05-12T11:04:35.664Z,15.60
2019-05-12T11:06:57.579Z,15.40
2019-05-12T11:09:31.607Z,15.30
2019-05-12T11:11:59.040Z,15.10
2019-05-12T11:14:30.531Z,15.00
2019-05-12T11:17:02.273Z,14.90
2019-05-12T11:19:33.777Z,15.10
2019-05-12T11:22:03.853Z,15.20
2019-05-12T11:24:33.873Z,15.30
2019-05-12T11:27:04.197Z,15.50
2019-05-12T11:29:45.580Z,15.70
2019-05-12T11:32:05.833Z,15.80
2019-05-12T11:34:35.754Z,15.80
2019-05-12T11:37:05.365Z,15.80
2019-05-12T11:39:45.320Z,15.80
2019-05-12T11:42:13.889Z,16.00
2019-05-12T11:44:44.268Z,16.20
2019-05-12T11:47:23.880Z,16.30
2019-05-12T11:49:46.710Z,16.40
2019-05-12T11:52:19.234Z,16.30
2019-05-12T11:54:51.229Z,16.20
2019-05-12T11:57:28.264Z,16.00
2019-05-12T12:00:00.869Z,16.10
2019-05-12T12:02:26.220Z,16.10
2019-05-12T12:04:56.060Z,16.20
2019-05-12T12:07:26.012Z,16.10
2019-05-12T12:09:59.331Z,16.00
2019-05-12T12:12:27.426Z,16.00
2019-05-12T12:14:57.329Z,16.10
2019-05-12T12:17:31.265Z,16.10
2019-05-12T12:19:58.800Z,16.20
2019-05-12T12:22:29.991Z,16.20
2019-05-12T12:25:05.070Z,16.30
2019-05-12T12:27:31.398Z,16.20
2019-05-12T12:30:13.653Z,16.30
2019-05-12T12:32:33.944Z,16.30
2019-05-12T12:35:07.283Z,16.50
2019-05-12T12:37:35.936Z,16.70
2019-05-12T12:40:06.569Z,16.70
2019-05-12T12:42:43.716Z,16.70
2019-05-12T12:45:23.753Z,16.50
2019-05-12T12:47:55.147Z,16.40
2019-05-12T12:50:26.381Z,16.40
2019-05-12T12:52:56.434Z,16.40
2019-05-12T12:55:27.072Z,16.30
2019-05-12T12:57:56.605Z,16.30
2019-05-12T13:00:32.222Z,16.50
2019-05-12T13:02:57.884Z,16.90
2019-05-12T13:05:27.544Z,16.80
2019-05-12T13:07:58.093Z,16.70
2019-05-12T13:10:27.784Z,16.80
2019-05-12T13:13:01.009Z,16.70
2019-05-12T13:15:28.839Z,16.50
2019-05-12T13:17:58.373Z,16.30
2019-05-12T13:20:27.902Z,16.10
2019-05-12T13:22:57.447Z,15.90
2019-05-12T13:25:27.704Z,15.90
2019-05-12T13:28:01.485Z,16.10
2019-05-12T13:30:42.818Z,16.20
2019-05-12T13:33:19.762Z,16.40
2019-05-12T13:35:50.334Z,16.40
2019-05-12T13:38:23.617Z,16.50
2019-05-12T13:40:54.003Z,16.50
2019-05-12T13:43:23.989Z,16.50
2019-05-12T13:45:53.929Z,16.60
2019-05-12T13:48:24.185Z,16.70
2019-05-12T13:51:07.555Z,16.80
2019-05-12T13:53:25.949Z,16.80
2019-05-12T13:55:55.880Z,16.80
2019-05-12T13:58:28.201Z,16.80
2019-05-12T14:01:13.421Z,16.70
2019-05-12T14:03:29.690Z,16.50
2019-05-12T14:05:59.629Z,16.50
2019-05-12T14:08:29.533Z,16.60
2019-05-12T14:10:59.971Z,16.90
2019-05-12T14:13:29.692Z,17.00
2019-05-12T14:16:02.705Z,17.20
2019-05-12T14:18:33.078Z,17.10
2019-05-12T14:21:04.252Z,16.80
2019-05-12T14:23:35.970Z,16.60
2019-05-12T14:26:07.675Z,16.40
2019-05-12T14:28:39.425Z,16.50
2019-05-12T14:31:09.015Z,16.40
2019-05-12T14:33:39.497Z,16.30
2019-05-12T14:36:13.653Z,16.20
2019-05-12T14:38:40.772Z,16.30
2019-05-12T14:41:12.345Z,16.40
2019-05-12T14:43:45.583Z,16.70
2019-05-12T14:46:13.865Z,16.80
2019-05-12T14:48:48.510Z,17.00
2019-05-12T14:51:15.344Z,17.10
2019-05-12T14:53:47.999Z,16.80
2019-05-12T14:56:16.730Z,16.50
2019-05-12T14:58:50.263Z,16.20
2019-05-12T15:01:17.801Z,16.40
2019-05-12T15:03:49.282Z,16.60
2019-05-12T15:06:19.405Z,16.80
2019-05-12T15:08:50.392Z,16.90
2019-05-12T15:11:19.936Z,16.70
2019-05-12T15:13:49.800Z,16.60
2019-05-12T15:16:19.404Z,16.40
2019-05-12T15:18:50.273Z,16.40
2019-05-12T15:21:21.432Z,16.50
2019-05-12T15:23:53.315Z,16.70
2019-05-12T15:26:24.260Z,16.90
2019-05-12T15:28:54.300Z,16.80
2019-05-12T15:31:24.245Z,16.50
2019-05-12T15:33:54.173Z,16.30
2019-05-12T15:36:24.542Z,16.20
2019-05-12T15:38:58.599Z,16.40
2019-05-12T15:41:25.999Z,16.70
2019-05-12T15:43:56.075Z,16.80
2019-05-12T15:46:25.789Z,16.60
2019-05-12T15:48:55.693Z,16.30
2019-05-12T15:51:25.633Z,16.10
2019-05-12T15:53:59.569Z,16.00
2019-05-12T15:56:27.092Z,16.10
2019-05-12T15:59:00.946Z,16.30
2019-05-12T16:01:28.545Z,16.40
2019-05-12T16:03:58.469Z,16.40
2019-05-12T16:06:28.374Z,16.50
2019-05-12T16:08:58.378Z,16.40
2019-05-12T16:11:28.211Z,16.20
2019-05-12T16:13:59.529Z,15.90
2019-05-12T16:16:36.441Z,15.90
2019-05-12T16:19:01.228Z,16.00
2019-05-12T16:21:31.168Z,16.10
2019-05-12T16:24:04.986Z,16.40
2019-05-12T16:26:33.452Z,16.50
2019-05-12T16:29:06.018Z,16.60
2019-05-12T16:31:33.991Z,16.50
2019-05-12T16:34:05.946Z,16.40
2019-05-12T16:36:35.301Z,16.20
2019-05-12T16:39:07.769Z,15.90
2019-05-12T16:41:37.820Z,15.90
2019-05-12T16:44:20.801Z,16.00
2019-05-12T16:46:39.393Z,16.10
2019-05-12T16:49:09.409Z,16.10
2019-05-12T16:51:39.109Z,16.00
2019-05-12T16:54:08.714Z,15.90
2019-05-12T16:56:39.528Z,15.90
2019-05-12T16:59:15.387Z,15.90
2019-05-12T17:01:40.020Z,15.90
2019-05-12T17:04:10.042Z,15.90
2019-05-12T17:06:39.830Z,15.90
2019-05-12T17:09:09.470Z,15.90
2019-05-12T17:11:47.388Z,15.80
2019-05-12T17:14:10.878Z,15.70
2019-05-12T17:16:46.887Z,15.70
2019-05-12T17:19:17.096Z,15.60
2019-05-12T17:21:49.421Z,15.60
2019-05-12T17:24:18.256Z,15.40
2019-05-12T17:26:48.470Z,15.40
2019-05-12T17:29:18.100Z,15.30
2019-05-12T17:31:47.653Z,15.20
2019-05-12T17:34:17.505Z,15.20
2019-05-12T17:36:50.067Z,15.10
2019-05-12T17:39:18.752Z,15.10
2019-05-12T17:41:48.564Z,15.10
2019-05-12T17:44:18.506Z,14.90
2019-05-12T17:46:48.393Z,14.90
2019-05-12T17:49:25.274Z,14.80
2019-05-12T17:51:49.877Z,14.70
2019-05-12T17:54:21.928Z,14.60
2019-05-12T17:56:51.353Z,14.50
2019-05-12T17:59:27.596Z,14.40
2019-05-12T18:01:53.754Z,14.30
2019-05-12T18:04:30.426Z,14.30
2019-05-12T18:06:57.549Z,14.20
2019-05-12T18:09:30.477Z,14.10
2019-05-12T18:11:59.096Z,14.10
2019-05-12T18:14:28.974Z,14.00
2019-05-12T18:17:02.348Z,14.00
2019-05-12T18:19:30.438Z,13.90
2019-05-12T18:22:03.437Z,13.90
2019-05-12T18:24:34.324Z,13.80
2019-05-12T18:27:07.244Z,13.80
2019-05-12T18:29:34.961Z,13.70
2019-05-12T18:32:08.583Z,13.70
2019-05-12T18:34:37.370Z,13.60
2019-05-12T18:37:07.192Z,13.60
2019-05-12T18:39:37.072Z,13.60
2019-05-12T18:42:07.081Z,13.50
2019-05-12T18:44:36.905Z,13.50
2019-05-12T18:47:06.834Z,13.40
2019-05-12T18:49:36.750Z,13.40
2019-05-12T18:52:06.675Z,13.30
2019-05-12T18:54:36.572Z,13.30
2019-05-12T18:57:07.468Z,13.30
2019-05-12T18:59:37.225Z,13.30
2019-05-12T19:02:07.148Z,13.30
2019-05-12T19:04:39.597Z,13.30
2019-05-12T19:07:08.692Z,13.20
2019-05-12T19:09:38.517Z,13.10
2019-05-12T19:12:15.697Z,13.00
2019-05-12T19:14:42.906Z,13.00
2019-05-12T19:17:14.135Z,12.90
2019-05-12T19:19:46.036Z,12.80
2019-05-12T19:22:15.554Z,12.70
2019-05-12T19:24:50.127Z,12.60
2019-05-12T19:27:20.747Z,12.60
2019-05-12T19:29:49.290Z,12.50
2019-05-12T19:32:19.229Z,12.50
2019-05-12T19:34:48.768Z,12.40
2019-05-12T19:37:19.478Z,12.40
2019-05-12T19:39:50.177Z,12.30
2019-05-12T19:42:20.556Z,12.30
2019-05-12T19:44:50.525Z,12.20
2019-05-12T19:47:21.388Z,12.10
2019-05-12T19:49:53.559Z,12.10
2019-05-12T19:52:24.351Z,12.10
2019-05-12T19:54:54.471Z,12.00
2019-05-12T19:57:26.250Z,11.90
2019-05-12T19:59:55.972Z,11.90
2019-05-12T20:02:26.128Z,11.90
2019-05-12T20:04:56.803Z,11.90
2019-05-12T20:07:25.899Z,11.90
2019-05-12T20:10:00.431Z,11.80
2019-05-12T20:12:26.984Z,11.70
2019-05-12T20:14:59.107Z,11.70
2019-05-12T20:17:28.445Z,11.60
2019-05-12T20:22:20.912Z,11.60
2019-05-12T20:24:53.503Z,11.50
2019-05-12T20:27:24.589Z,11.40
2019-05-12T20:29:54.153Z,11.40
2019-05-12T20:32:24.261Z,11.40
2019-05-12T20:34:55.372Z,11.30
2019-05-12T20:37:25.553Z,11.20
2019-05-12T20:40:01.901Z,11.20
2019-05-12T20:42:32.873Z,11.20
2019-05-12T20:45:02.487Z,11.20
2019-05-12T20:47:33.719Z,11.10
2019-05-12T20:50:04.416Z,11.00
2019-05-12T20:52:34.299Z,10.90
2019-05-12T20:55:04.630Z,10.90
2019-05-12T20:57:34.690Z,10.80
2019-05-12T21:00:08.594Z,10.80
2019-05-12T21:02:40.290Z,10.80
2019-05-12T21:05:16.758Z,10.70
2019-05-12T21:07:41.461Z,10.70
2019-05-12T21:10:14.792Z,10.60
2019-05-12T21:12:49.900Z,10.60
2019-05-12T21:15:20.581Z,10.60
2019-05-12T21:17:58.250Z,10.50
2019-05-12T21:20:20.066Z,10.40
2019-05-12T21:22:51.206Z,10.40
2019-05-12T21:25:23.161Z,10.30
2019-05-12T21:27:55.763Z,10.30
2019-05-12T21:30:24.807Z,10.30
2019-05-12T21:32:59.698Z,10.20
2019-05-12T21:35:33.767Z,10.30
2019-05-12T21:37:58.454Z,10.30
2019-05-12T21:40:31.892Z,10.20
2019-05-12T21:42:59.613Z,10.20
2019-05-12T21:45:31.125Z,10.10
2019-05-12T21:48:03.502Z,10.00
2019-05-12T21:50:39.963Z,10.00
2019-05-12T21:53:15.625Z,10.00
2019-05-12T21:55:41.492Z,9.90
2019-05-12T21:58:14.589Z,9.90
2019-05-12T22:00:50.362Z,9.90
2019-05-12T22:03:18.625Z,10.00
2019-05-12T22:05:54.646Z,10.00
2019-05-12T22:08:24.703Z,10.00
2019-05-12T22:10:54.316Z,9.80
2019-05-12T22:13:25.665Z,9.80
2019-05-12T22:15:57.332Z,9.70
2019-05-12T22:18:27.079Z,9.80
2019-05-12T22:21:01.328Z,9.80
2019-05-12T22:23:28.815Z,9.80
2019-05-12T22:26:00.283Z,9.80
2019-05-12T22:28:30.044Z,9.80
2019-05-12T22:31:00.080Z,9.80
2019-05-12T22:33:29.857Z,9.70
2019-05-12T22:36:04.885Z,9.60
2019-05-12T22:38:33.872Z,9.60
2019-05-12T22:41:04.344Z,9.70
2019-05-12T22:43:40.728Z,9.70
2019-05-12T22:46:06.105Z,9.70
2019-05-12T22:48:40.324Z,9.70
2019-05-12T22:51:17.642Z,9.70
2019-05-12T22:53:39.092Z,9.70
2019-05-12T22:56:17.437Z,9.60
2019-05-12T22:58:40.472Z,9.60
2019-05-12T23:01:10.056Z,9.50
2019-05-12T23:03:45.741Z,9.60
2019-05-12T23:06:23.391Z,9.60
2019-05-12T23:08:45.137Z,9.50
2019-05-12T23:11:14.599Z,9.50
2019-05-12T23:13:44.468Z,9.40
2019-05-12T23:16:14.250Z,9.50
2019-05-12T23:18:44.408Z,9.50
2019-05-12T23:21:17.504Z,9.50
2019-05-12T23:23:49.995Z,9.50
2019-05-12T23:26:17.351Z,9.50
2019-05-12T23:28:50.297Z,9.50
2019-05-12T23:31:19.515Z,9.50
2019-05-12T23:33:50.324Z,9.40
2019-05-12T23:36:19.993Z,9.40
2019-05-12T23:38:51.962Z,9.40
2019-05-12T23:41:23.770Z,9.40
2019-05-12T23:43:53.843Z,9.40
2019-05-12T23:46:23.818Z,9.40
2019-05-12T23:48:54.315Z,9.30
2019-05-12T23:51:24.515Z,9.30
2019-05-12T23:53:56.028Z,9.30
2019-05-12T23:56:25.972Z,9.30
2019-05-12T23:58:55.818Z,9.30
